Terminal Aerodrome Forecast
Issued by NWS

Home | Current Version | Previous Version | Text Only | Print | Product List | Glossary Off
Versions: 1 2 3 4 5 6 7 8 9 10 11 12 13 14 15 16 17

000
FTUS43 KABR 201728
TAFATY
TAF
KATY 201728Z 2018/2118 33010KT P6SM BKN200
     FM210100 27006KT P6SM SKC
     FM211500 32014KT P6SM SKC=

USA.gov is the U.S. government's official web portal to all federal, state and local government web resources and services.